sensor_id;sensor_type;location;lat;lon;timestamp;P1;durP1;ratioP1;P2;durP2;ratioP2
12493;SDS011;8260;51.422;6.786;2022-08-19T00:00:05;6.07;;;5.57;;
12493;SDS011;8260;51.422;6.786;2022-08-19T00:02:34;5.70;;;5.20;;
12493;SDS011;8260;51.422;6.786;2022-08-19T00:05:02;5.93;;;5.43;;
12493;SDS011;8260;51.422;6.786;2022-08-19T00:07:31;6.35;;;5.75;;
12493;SDS011;8260;51.422;6.786;2022-08-19T00:10:00;6.55;;;5.80;;
12493;SDS011;8260;51.422;6.786;2022-08-19T00:12:28;6.50;;;5.90;;
12493;SDS011;8260;51.422;6.786;2022-08-19T00:14:56;7.03;;;6.32;;
12493;SDS011;8260;51.422;6.786;2022-08-19T00:17:26;6.05;;;5.10;;
12493;SDS011;8260;51.422;6.786;2022-08-19T00:19:55;6.07;;;5.57;;
12493;SDS011;8260;51.422;6.786;2022-08-19T00:22:23;6.47;;;5.85;;
12493;SDS011;8260;51.422;6.786;2022-08-19T00:24:53;7.13;;;6.15;;
12493;SDS011;8260;51.422;6.786;2022-08-19T00:27:22;6.32;;;5.70;;
12493;SDS011;8260;51.422;6.786;2022-08-19T00:29:52;6.53;;;5.93;;
12493;SDS011;8260;51.422;6.786;2022-08-19T00:32:20;6.43;;;5.82;;
12493;SDS011;8260;51.422;6.786;2022-08-19T00:34:50;8.43;;;6.90;;
12493;SDS011;8260;51.422;6.786;2022-08-19T00:37:19;7.10;;;6.22;;
12493;SDS011;8260;51.422;6.786;2022-08-19T00:39:49;6.78;;;6.18;;
12493;SDS011;8260;51.422;6.786;2022-08-19T00:42:18;7.68;;;5.95;;
12493;SDS011;8260;51.422;6.786;2022-08-19T00:44:47;6.00;;;5.40;;
12493;SDS011;8260;51.422;6.786;2022-08-19T00:47:16;7.95;;;6.32;;
12493;SDS011;8260;51.422;6.786;2022-08-19T00:49:47;7.80;;;6.03;;
12493;SDS011;8260;51.422;6.786;2022-08-19T00:52:21;7.10;;;6.40;;
12493;SDS011;8260;51.422;6.786;2022-08-19T00:54:50;7.30;;;6.60;;
12493;SDS011;8260;51.422;6.786;2022-08-19T00:57:22;8.02;;;6.78;;
12493;SDS011;8260;51.422;6.786;2022-08-19T00:59:52;7.95;;;6.32;;
12493;SDS011;8260;51.422;6.786;2022-08-19T01:02:28;7.25;;;6.55;;
12493;SDS011;8260;51.422;6.786;2022-08-19T01:04:57;6.90;;;6.20;;
12493;SDS011;8260;51.422;6.786;2022-08-19T01:07:27;6.60;;;6.00;;
12493;SDS011;8260;51.422;6.786;2022-08-19T01:10:04;7.72;;;5.90;;
12493;SDS011;8260;51.422;6.786;2022-08-19T01:12:33;6.90;;;6.20;;
12493;SDS011;8260;51.422;6.786;2022-08-19T01:15:02;7.53;;;6.50;;
12493;SDS011;8260;51.422;6.786;2022-08-19T01:17:31;6.55;;;5.95;;
12493;SDS011;8260;51.422;6.786;2022-08-19T01:19:59;8.95;;;6.60;;
12493;SDS011;8260;51.422;6.786;2022-08-19T01:22:29;6.53;;;5.93;;
12493;SDS011;8260;51.422;6.786;2022-08-19T01:24:59;8.23;;;6.25;;
12493;SDS011;8260;51.422;6.786;2022-08-19T01:27:36;7.63;;;6.68;;
12493;SDS011;8260;51.422;6.786;2022-08-19T01:30:10;7.28;;;6.68;;
12493;SDS011;8260;51.422;6.786;2022-08-19T01:32:38;6.95;;;6.20;;
12493;SDS011;8260;51.422;6.786;2022-08-19T01:35:07;7.70;;;7.00;;
12493;SDS011;8260;51.422;6.786;2022-08-19T01:37:43;8.07;;;7.15;;
12493;SDS011;8260;51.422;6.786;2022-08-19T01:40:12;6.82;;;6.22;;
12493;SDS011;8260;51.422;6.786;2022-08-19T01:42:40;7.25;;;6.55;;
12493;SDS011;8260;51.422;6.786;2022-08-19T01:45:09;7.20;;;6.50;;
12493;SDS011;8260;51.422;6.786;2022-08-19T01:47:38;6.78;;;6.15;;
12493;SDS011;8260;51.422;6.786;2022-08-19T01:50:07;7.32;;;6.57;;
12493;SDS011;8260;51.422;6.786;2022-08-19T01:52:37;7.30;;;6.55;;
12493;SDS011;8260;51.422;6.786;2022-08-19T01:55:08;7.22;;;6.63;;
12493;SDS011;8260;51.422;6.786;2022-08-19T01:57:38;7.25;;;6.55;;
12493;SDS011;8260;51.422;6.786;2022-08-19T02:00:09;6.15;;;5.60;;
12493;SDS011;8260;51.422;6.786;2022-08-19T02:02:38;6.97;;;6.38;;
12493;SDS011;8260;51.422;6.786;2022-08-19T02:05:09;7.75;;;6.57;;
12493;SDS011;8260;51.422;6.786;2022-08-19T02:07:38;6.90;;;6.30;;
12493;SDS011;8260;51.422;6.786;2022-08-19T02:10:10;7.20;;;6.55;;
12493;SDS011;8260;51.422;6.786;2022-08-19T02:12:42;7.20;;;6.60;;
12493;SDS011;8260;51.422;6.786;2022-08-19T02:15:11;7.25;;;6.55;;
12493;SDS011;8260;51.422;6.786;2022-08-19T02:17:39;7.80;;;7.00;;
12493;SDS011;8260;51.422;6.786;2022-08-19T02:20:08;9.15;;;7.13;;
12493;SDS011;8260;51.422;6.786;2022-08-19T02:22:37;7.10;;;6.50;;
12493;SDS011;8260;51.422;6.786;2022-08-19T02:25:09;7.88;;;7.07;;
12493;SDS011;8260;51.422;6.786;2022-08-19T02:27:38;8.30;;;7.55;;
12493;SDS011;8260;51.422;6.786;2022-08-19T02:30:08;8.43;;;7.53;;
12493;SDS011;8260;51.422;6.786;2022-08-19T02:32:39;8.20;;;7.40;;
12493;SDS011;8260;51.422;6.786;2022-08-19T02:35:10;8.02;;;7.30;;
12493;SDS011;8260;51.422;6.786;2022-08-19T02:37:38;8.43;;;7.53;;
12493;SDS011;8260;51.422;6.786;2022-08-19T02:40:26;8.35;;;7.13;;
12493;SDS011;8260;51.422;6.786;2022-08-19T02:42:55;8.13;;;7.28;;
12493;SDS011;8260;51.422;6.786;2022-08-19T02:45:24;7.65;;;7.00;;
12493;SDS011;8260;51.422;6.786;2022-08-19T02:47:52;7.97;;;7.25;;
12493;SDS011;8260;51.422;6.786;2022-08-19T02:50:20;8.38;;;7.57;;
12493;SDS011;8260;51.422;6.786;2022-08-19T02:52:49;7.95;;;7.25;;
12493;SDS011;8260;51.422;6.786;2022-08-19T02:55:17;8.45;;;7.55;;
12493;SDS011;8260;51.422;6.786;2022-08-19T02:57:48;8.05;;;7.32;;
12493;SDS011;8260;51.422;6.786;2022-08-19T03:00:16;8.30;;;7.53;;
12493;SDS011;8260;51.422;6.786;2022-08-19T03:02:45;8.98;;;8.27;;
12493;SDS011;8260;51.422;6.786;2022-08-19T03:05:15;8.73;;;7.90;;
12493;SDS011;8260;51.422;6.786;2022-08-19T03:07:53;8.50;;;7.50;;
12493;SDS011;8260;51.422;6.786;2022-08-19T03:10:22;8.82;;;7.93;;
12493;SDS011;8260;51.422;6.786;2022-08-19T03:12:51;9.50;;;8.50;;
12493;SDS011;8260;51.422;6.786;2022-08-19T03:15:20;8.63;;;7.82;;
12493;SDS011;8260;51.422;6.786;2022-08-19T03:17:48;8.93;;;8.05;;
12493;SDS011;8260;51.422;6.786;2022-08-19T03:20:17;8.50;;;7.68;;
12493;SDS011;8260;51.422;6.786;2022-08-19T03:22:45;8.20;;;7.40;;
12493;SDS011;8260;51.422;6.786;2022-08-19T03:25:14;8.25;;;7.45;;
12493;SDS011;8260;51.422;6.786;2022-08-19T03:27:42;8.27;;;7.50;;
12493;SDS011;8260;51.422;6.786;2022-08-19T03:30:16;8.32;;;7.53;;
12493;SDS011;8260;51.422;6.786;2022-08-19T03:32:49;7.75;;;7.00;;
12493;SDS011;8260;51.422;6.786;2022-08-19T03:35:22;9.00;;;7.63;;
12493;SDS011;8260;51.422;6.786;2022-08-19T03:37:51;8.55;;;7.65;;
12493;SDS011;8260;51.422;6.786;2022-08-19T03:40:19;9.32;;;7.88;;
12493;SDS011;8260;51.422;6.786;2022-08-19T03:42:48;8.95;;;8.05;;
12493;SDS011;8260;51.422;6.786;2022-08-19T03:45:17;8.95;;;8.05;;
12493;SDS011;8260;51.422;6.786;2022-08-19T03:47:46;9.18;;;8.10;;
12493;SDS011;8260;51.422;6.786;2022-08-19T03:50:14;9.02;;;7.90;;
12493;SDS011;8260;51.422;6.786;2022-08-19T03:52:47;10.38;;;9.38;;
12493;SDS011;8260;51.422;6.786;2022-08-19T03:55:16;10.50;;;8.93;;
12493;SDS011;8260;51.422;6.786;2022-08-19T03:57:44;9.93;;;9.02;;
12493;SDS011;8260;51.422;6.786;2022-08-19T04:00:15;9.90;;;9.02;;
12493;SDS011;8260;51.422;6.786;2022-08-19T04:02:45;11.18;;;9.30;;
12493;SDS011;8260;51.422;6.786;2022-08-19T04:05:25;9.90;;;8.80;;
12493;SDS011;8260;51.422;6.786;2022-08-19T04:07:54;10.63;;;9.63;;
12493;SDS011;8260;51.422;6.786;2022-08-19T04:10:25;10.52;;;9.45;;
12493;SDS011;8260;51.422;6.786;2022-08-19T04:12:54;10.57;;;9.68;;
12493;SDS011;8260;51.422;6.786;2022-08-19T04:15:22;10.27;;;9.35;;
12493;SDS011;8260;51.422;6.786;2022-08-19T04:17:52;11.43;;;9.77;;
12493;SDS011;8260;51.422;6.786;2022-08-19T04:20:21;9.88;;;9.02;;
12493;SDS011;8260;51.422;6.786;2022-08-19T04:22:49;10.45;;;9.40;;
12493;SDS011;8260;51.422;6.786;2022-08-19T04:25:18;10.32;;;9.27;;
12493;SDS011;8260;51.422;6.786;2022-08-19T04:27:46;10.57;;;9.15;;
12493;SDS011;8260;51.422;6.786;2022-08-19T04:30:15;10.00;;;8.98;;
12493;SDS011;8260;51.422;6.786;2022-08-19T04:32:44;10.77;;;9.68;;
12493;SDS011;8260;51.422;6.786;2022-08-19T04:35:13;11.60;;;9.88;;
12493;SDS011;8260;51.422;6.786;2022-08-19T04:37:47;10.65;;;9.63;;
12493;SDS011;8260;51.422;6.786;2022-08-19T04:40:15;9.95;;;8.95;;
12493;SDS011;8260;51.422;6.786;2022-08-19T04:43:01;10.95;;;9.95;;
12493;SDS011;8260;51.422;6.786;2022-08-19T04:45:30;10.70;;;9.60;;
12493;SDS011;8260;51.422;6.786;2022-08-19T04:48:09;10.55;;;9.52;;
12493;SDS011;8260;51.422;6.786;2022-08-19T04:50:55;11.73;;;10.52;;
12493;SDS011;8260;51.422;6.786;2022-08-19T04:53:24;11.50;;;10.40;;
12493;SDS011;8260;51.422;6.786;2022-08-19T04:56:02;11.90;;;10.77;;
12493;SDS011;8260;51.422;6.786;2022-08-19T04:58:33;17.00;;;13.10;;
12493;SDS011;8260;51.422;6.786;2022-08-19T05:01:02;14.13;;;12.75;;
12493;SDS011;8260;51.422;6.786;2022-08-19T05:03:30;14.50;;;12.90;;
12493;SDS011;8260;51.422;6.786;2022-08-19T05:06:05;13.82;;;12.05;;
12493;SDS011;8260;51.422;6.786;2022-08-19T05:08:34;14.05;;;12.65;;
12493;SDS011;8260;51.422;6.786;2022-08-19T05:11:07;14.30;;;12.77;;
12493;SDS011;8260;51.422;6.786;2022-08-19T05:13:39;14.70;;;13.27;;
12493;SDS011;8260;51.422;6.786;2022-08-19T05:16:08;15.23;;;13.38;;
12493;SDS011;8260;51.422;6.786;2022-08-19T05:18:37;15.52;;;14.02;;
12493;SDS011;8260;51.422;6.786;2022-08-19T05:21:25;15.55;;;13.88;;
12493;SDS011;8260;51.422;6.786;2022-08-19T05:24:12;15.95;;;14.23;;
12493;SDS011;8260;51.422;6.786;2022-08-19T05:26:41;17.85;;;14.57;;
12493;SDS011;8260;51.422;6.786;2022-08-19T05:29:12;18.80;;;13.35;;
12493;SDS011;8260;51.422;6.786;2022-08-19T05:31:41;17.65;;;14.52;;
12493;SDS011;8260;51.422;6.786;2022-08-19T05:34:10;17.42;;;15.43;;
12493;SDS011;8260;51.422;6.786;2022-08-19T05:36:47;19.13;;;15.85;;
12493;SDS011;8260;51.422;6.786;2022-08-19T05:39:17;19.55;;;17.45;;
12493;SDS011;8260;51.422;6.786;2022-08-19T05:41:48;19.35;;;17.35;;
12493;SDS011;8260;51.422;6.786;2022-08-19T05:44:17;23.10;;;19.30;;
12493;SDS011;8260;51.422;6.786;2022-08-19T05:46:47;22.08;;;19.83;;
12493;SDS011;8260;51.422;6.786;2022-08-19T05:49:19;22.27;;;20.05;;
12493;SDS011;8260;51.422;6.786;2022-08-19T05:51:49;26.30;;;20.40;;
12493;SDS011;8260;51.422;6.786;2022-08-19T05:54:18;24.00;;;19.83;;
12493;SDS011;8260;51.422;6.786;2022-08-19T05:56:46;25.48;;;21.65;;
12493;SDS011;8260;51.422;6.786;2022-08-19T05:59:15;26.08;;;22.70;;
12493;SDS011;8260;51.422;6.786;2022-08-19T06:01:45;29.85;;;25.55;;
12493;SDS011;8260;51.422;6.786;2022-08-19T06:04:16;29.75;;;24.23;;
12493;SDS011;8260;51.422;6.786;2022-08-19T06:06:45;28.60;;;25.50;;
12493;SDS011;8260;51.422;6.786;2022-08-19T06:09:15;28.92;;;25.30;;
12493;SDS011;8260;51.422;6.786;2022-08-19T06:11:45;31.77;;;26.17;;
12493;SDS011;8260;51.422;6.786;2022-08-19T06:14:17;36.00;;;29.30;;
12493;SDS011;8260;51.422;6.786;2022-08-19T06:16:53;34.40;;;30.42;;
12493;SDS011;8260;51.422;6.786;2022-08-19T06:19:22;35.88;;;29.83;;
12493;SDS011;8260;51.422;6.786;2022-08-19T06:21:51;33.53;;;29.58;;
12493;SDS011;8260;51.422;6.786;2022-08-19T06:24:22;33.08;;;29.45;;
12493;SDS011;8260;51.422;6.786;2022-08-19T06:26:52;41.13;;;31.92;;
12493;SDS011;8260;51.422;6.786;2022-08-19T06:29:27;32.45;;;29.05;;
12493;SDS011;8260;51.422;6.786;2022-08-19T06:31:56;35.10;;;30.40;;
12493;SDS011;8260;51.422;6.786;2022-08-19T06:34:25;35.60;;;29.50;;
12493;SDS011;8260;51.422;6.786;2022-08-19T06:36:55;33.80;;;30.10;;
12493;SDS011;8260;51.422;6.786;2022-08-19T06:39:26;37.67;;;31.52;;
12493;SDS011;8260;51.422;6.786;2022-08-19T06:41:56;38.17;;;31.95;;
12493;SDS011;8260;51.422;6.786;2022-08-19T06:44:26;37.85;;;33.28;;
12493;SDS011;8260;51.422;6.786;2022-08-19T06:46:57;42.00;;;33.30;;
12493;SDS011;8260;51.422;6.786;2022-08-19T06:49:25;43.22;;;34.38;;
12493;SDS011;8260;51.422;6.786;2022-08-19T06:51:58;43.10;;;34.92;;
12493;SDS011;8260;51.422;6.786;2022-08-19T06:54:28;45.95;;;39.42;;
12493;SDS011;8260;51.422;6.786;2022-08-19T06:57:03;53.30;;;47.13;;
12493;SDS011;8260;51.422;6.786;2022-08-19T06:59:31;53.60;;;45.60;;
12493;SDS011;8260;51.422;6.786;2022-08-19T07:02:01;49.92;;;43.35;;
12493;SDS011;8260;51.422;6.786;2022-08-19T07:04:32;53.50;;;44.45;;
12493;SDS011;8260;51.422;6.786;2022-08-19T07:07:01;58.40;;;44.85;;
12493;SDS011;8260;51.422;6.786;2022-08-19T07:09:47;53.85;;;45.25;;
12493;SDS011;8260;51.422;6.786;2022-08-19T07:12:26;51.80;;;44.03;;
12493;SDS011;8260;51.422;6.786;2022-08-19T07:14:56;47.55;;;41.53;;
12493;SDS011;8260;51.422;6.786;2022-08-19T07:17:24;48.63;;;40.45;;
12493;SDS011;8260;51.422;6.786;2022-08-19T07:19:53;56.33;;;42.80;;
12493;SDS011;8260;51.422;6.786;2022-08-19T07:22:21;49.40;;;42.08;;
12493;SDS011;8260;51.422;6.786;2022-08-19T07:24:52;47.47;;;40.97;;
12493;SDS011;8260;51.422;6.786;2022-08-19T07:27:20;48.42;;;41.22;;
12493;SDS011;8260;51.422;6.786;2022-08-19T07:29:52;42.78;;;38.20;;
12493;SDS011;8260;51.422;6.786;2022-08-19T07:32:24;45.35;;;38.22;;
12493;SDS011;8260;51.422;6.786;2022-08-19T07:34:53;44.67;;;36.92;;
12493;SDS011;8260;51.422;6.786;2022-08-19T07:37:22;43.90;;;36.28;;
12493;SDS011;8260;51.422;6.786;2022-08-19T07:39:59;40.25;;;34.97;;
12493;SDS011;8260;51.422;6.786;2022-08-19T07:42:28;39.00;;;34.00;;
12493;SDS011;8260;51.422;6.786;2022-08-19T07:44:57;38.72;;;32.72;;
12493;SDS011;8260;51.422;6.786;2022-08-19T07:47:26;37.90;;;31.25;;
12493;SDS011;8260;51.422;6.786;2022-08-19T07:50:15;34.22;;;29.80;;
12493;SDS011;8260;51.422;6.786;2022-08-19T07:52:44;34.55;;;28.50;;
12493;SDS011;8260;51.422;6.786;2022-08-19T07:55:17;34.72;;;30.02;;
12493;SDS011;8260;51.422;6.786;2022-08-19T07:58:05;33.63;;;28.08;;
12493;SDS011;8260;51.422;6.786;2022-08-19T08:00:34;34.50;;;29.15;;
12493;SDS011;8260;51.422;6.786;2022-08-19T08:03:02;33.20;;;28.63;;
12493;SDS011;8260;51.422;6.786;2022-08-19T08:05:31;31.50;;;27.23;;
12493;SDS011;8260;51.422;6.786;2022-08-19T08:08:17;28.98;;;25.17;;
12493;SDS011;8260;51.422;6.786;2022-08-19T08:11:14;29.27;;;25.80;;
12493;SDS011;8260;51.422;6.786;2022-08-19T08:13:45;28.77;;;25.70;;
12493;SDS011;8260;51.422;6.786;2022-08-19T08:16:26;26.67;;;23.38;;
12493;SDS011;8260;51.422;6.786;2022-08-19T08:18:57;27.70;;;24.77;;
12493;SDS011;8260;51.422;6.786;2022-08-19T08:21:26;26.58;;;23.27;;
12493;SDS011;8260;51.422;6.786;2022-08-19T08:23:55;28.88;;;23.83;;
12493;SDS011;8260;51.422;6.786;2022-08-19T08:26:29;24.58;;;21.95;;
12493;SDS011;8260;51.422;6.786;2022-08-19T08:28:59;27.10;;;22.92;;
12493;SDS011;8260;51.422;6.786;2022-08-19T08:31:37;29.13;;;21.90;;
12493;SDS011;8260;51.422;6.786;2022-08-19T08:34:06;22.23;;;19.83;;
12493;SDS011;8260;51.422;6.786;2022-08-19T08:36:36;24.30;;;20.90;;
12493;SDS011;8260;51.422;6.786;2022-08-19T08:39:07;19.48;;;17.38;;
12493;SDS011;8260;51.422;6.786;2022-08-19T08:41:40;23.55;;;21.05;;
12493;SDS011;8260;51.422;6.786;2022-08-19T08:44:12;24.13;;;20.55;;
12493;SDS011;8260;51.422;6.786;2022-08-19T08:46:46;21.88;;;18.58;;
12493;SDS011;8260;51.422;6.786;2022-08-19T08:49:21;17.52;;;15.70;;
12493;SDS011;8260;51.422;6.786;2022-08-19T08:51:54;20.60;;;17.60;;
12493;SDS011;8260;51.422;6.786;2022-08-19T08:54:28;21.85;;;19.55;;
12493;SDS011;8260;51.422;6.786;2022-08-19T08:57:01;21.73;;;16.75;;
12493;SDS011;8260;51.422;6.786;2022-08-19T08:59:31;17.17;;;15.23;;
12493;SDS011;8260;51.422;6.786;2022-08-19T09:02:02;15.48;;;13.40;;
12493;SDS011;8260;51.422;6.786;2022-08-19T09:04:31;16.80;;;15.10;;
12493;SDS011;8260;51.422;6.786;2022-08-19T09:07:03;23.60;;;19.95;;
12493;SDS011;8260;51.422;6.786;2022-08-19T09:09:58;22.20;;;19.02;;
12493;SDS011;8260;51.422;6.786;2022-08-19T09:12:36;23.52;;;19.40;;
12493;SDS011;8260;51.422;6.786;2022-08-19T09:15:08;21.00;;;17.90;;
12493;SDS011;8260;51.422;6.786;2022-08-19T09:17:38;22.73;;;19.15;;
12493;SDS011;8260;51.422;6.786;2022-08-19T09:20:12;24.13;;;21.48;;
12493;SDS011;8260;51.422;6.786;2022-08-19T09:22:42;26.90;;;21.85;;
12493;SDS011;8260;51.422;6.786;2022-08-19T09:25:15;26.13;;;22.83;;
12493;SDS011;8260;51.422;6.786;2022-08-19T09:27:54;27.73;;;22.45;;
12493;SDS011;8260;51.422;6.786;2022-08-19T09:30:29;26.70;;;22.58;;
12493;SDS011;8260;51.422;6.786;2022-08-19T09:32:58;26.02;;;21.92;;
12493;SDS011;8260;51.422;6.786;2022-08-19T09:35:27;25.05;;;22.35;;
12493;SDS011;8260;51.422;6.786;2022-08-19T09:37:56;27.50;;;21.90;;
12493;SDS011;8260;51.422;6.786;2022-08-19T09:40:25;27.05;;;23.85;;
12493;SDS011;8260;51.422;6.786;2022-08-19T09:42:57;25.40;;;22.73;;
12493;SDS011;8260;51.422;6.786;2022-08-19T09:45:26;25.95;;;21.00;;
12493;SDS011;8260;51.422;6.786;2022-08-19T09:47:57;26.25;;;23.42;;
12493;SDS011;8260;51.422;6.786;2022-08-19T09:50:27;26.02;;;22.48;;
12493;SDS011;8260;51.422;6.786;2022-08-19T09:53:00;24.02;;;21.50;;
12493;SDS011;8260;51.422;6.786;2022-08-19T09:55:32;25.42;;;21.83;;
12493;SDS011;8260;51.422;6.786;2022-08-19T09:58:02;24.08;;;21.58;;
12493;SDS011;8260;51.422;6.786;2022-08-19T10:00:30;23.42;;;20.98;;
12493;SDS011;8260;51.422;6.786;2022-08-19T10:02:58;25.17;;;21.88;;
12493;SDS011;8260;51.422;6.786;2022-08-19T10:05:28;28.80;;;24.85;;
12493;SDS011;8260;51.422;6.786;2022-08-19T10:08:16;31.40;;;25.45;;
12493;SDS011;8260;51.422;6.786;2022-08-19T10:10:46;31.05;;;26.55;;
12493;SDS011;8260;51.422;6.786;2022-08-19T10:13:17;27.23;;;22.15;;
12493;SDS011;8260;51.422;6.786;2022-08-19T10:15:48;26.20;;;20.52;;
12493;SDS011;8260;51.422;6.786;2022-08-19T10:18:18;27.35;;;23.35;;
12493;SDS011;8260;51.422;6.786;2022-08-19T10:20:47;27.52;;;22.55;;
12493;SDS011;8260;51.422;6.786;2022-08-19T10:23:18;24.58;;;22.00;;
12493;SDS011;8260;51.422;6.786;2022-08-19T10:25:46;20.67;;;18.17;;
12493;SDS011;8260;51.422;6.786;2022-08-19T10:28:17;21.67;;;19.40;;
12493;SDS011;8260;51.422;6.786;2022-08-19T10:30:45;24.60;;;19.77;;
12493;SDS011;8260;51.422;6.786;2022-08-19T10:33:14;22.67;;;20.25;;
12493;SDS011;8260;51.422;6.786;2022-08-19T10:36:04;21.33;;;19.13;;
12493;SDS011;8260;51.422;6.786;2022-08-19T10:38:33;21.60;;;18.52;;
12493;SDS011;8260;51.422;6.786;2022-08-19T10:41:08;20.35;;;18.25;;
12493;SDS011;8260;51.422;6.786;2022-08-19T10:43:38;23.77;;;18.52;;
12493;SDS011;8260;51.422;6.786;2022-08-19T10:46:08;19.15;;;17.15;;
12493;SDS011;8260;51.422;6.786;2022-08-19T10:48:42;19.15;;;17.20;;
12493;SDS011;8260;51.422;6.786;2022-08-19T10:51:10;20.58;;;17.60;;
12493;SDS011;8260;51.422;6.786;2022-08-19T10:56:46;20.25;;;18.08;;
12493;SDS011;8260;51.422;6.786;2022-08-19T10:59:24;18.35;;;16.52;;
12493;SDS011;8260;51.422;6.786;2022-08-19T11:01:59;21.88;;;14.85;;
12493;SDS011;8260;51.422;6.786;2022-08-19T11:04:28;15.65;;;13.68;;
12493;SDS011;8260;51.422;6.786;2022-08-19T11:06:58;16.73;;;15.02;;
12493;SDS011;8260;51.422;6.786;2022-08-19T11:09:26;16.08;;;14.48;;
12493;SDS011;8260;51.422;6.786;2022-08-19T11:12:01;14.00;;;12.63;;
12493;SDS011;8260;51.422;6.786;2022-08-19T11:14:30;15.60;;;13.80;;
12493;SDS011;8260;51.422;6.786;2022-08-19T11:17:00;14.07;;;12.68;;
12493;SDS011;8260;51.422;6.786;2022-08-19T11:19:29;16.63;;;14.15;;
12493;SDS011;8260;51.422;6.786;2022-08-19T11:21:57;16.60;;;15.00;;
12493;SDS011;8260;51.422;6.786;2022-08-19T11:24:29;15.75;;;12.90;;
12493;SDS011;8260;51.422;6.786;2022-08-19T11:27:01;12.65;;;11.00;;
12493;SDS011;8260;51.422;6.786;2022-08-19T11:29:31;13.75;;;12.48;;
12493;SDS011;8260;51.422;6.786;2022-08-19T11:32:02;13.50;;;11.77;;
12493;SDS011;8260;51.422;6.786;2022-08-19T11:34:31;12.02;;;10.48;;
12493;SDS011;8260;51.422;6.786;2022-08-19T11:37:01;11.27;;;10.18;;
12493;SDS011;8260;51.422;6.786;2022-08-19T11:39:30;11.07;;;10.00;;
12493;SDS011;8260;51.422;6.786;2022-08-19T11:42:00;12.88;;;10.77;;
12493;SDS011;8260;51.422;6.786;2022-08-19T11:44:29;10.88;;;9.73;;
12493;SDS011;8260;51.422;6.786;2022-08-19T11:47:02;10.52;;;9.45;;
12493;SDS011;8260;51.422;6.786;2022-08-19T11:49:34;11.02;;;9.95;;
12493;SDS011;8260;51.422;6.786;2022-08-19T11:54:57;11.05;;;9.40;;
12493;SDS011;8260;51.422;6.786;2022-08-19T11:57:25;10.60;;;9.57;;
12493;SDS011;8260;51.422;6.786;2022-08-19T11:59:54;10.32;;;8.88;;
12493;SDS011;8260;51.422;6.786;2022-08-19T12:02:22;9.07;;;8.27;;
12493;SDS011;8260;51.422;6.786;2022-08-19T12:04:51;11.43;;;8.70;;
12493;SDS011;8260;51.422;6.786;2022-08-19T12:07:20;8.80;;;7.80;;
12493;SDS011;8260;51.422;6.786;2022-08-19T12:09:48;8.95;;;8.02;;
12493;SDS011;8260;51.422;6.786;2022-08-19T12:12:18;9.30;;;8.00;;
12493;SDS011;8260;51.422;6.786;2022-08-19T12:14:47;10.40;;;8.00;;
12493;SDS011;8260;51.422;6.786;2022-08-19T12:17:16;9.48;;;6.32;;
12493;SDS011;8260;51.422;6.786;2022-08-19T12:19:45;9.65;;;7.07;;
12493;SDS011;8260;51.422;6.786;2022-08-19T12:22:13;9.40;;;7.38;;
12493;SDS011;8260;51.422;6.786;2022-08-19T12:24:42;8.82;;;7.75;;
12493;SDS011;8260;51.422;6.786;2022-08-19T12:27:10;8.40;;;7.22;;
12493;SDS011;8260;51.422;6.786;2022-08-19T12:29:58;8.40;;;7.60;;
12493;SDS011;8260;51.422;6.786;2022-08-19T12:32:28;8.40;;;7.60;;
12493;SDS011;8260;51.422;6.786;2022-08-19T12:34:56;6.97;;;6.38;;
12493;SDS011;8260;51.422;6.786;2022-08-19T12:37:25;6.95;;;6.28;;
12493;SDS011;8260;51.422;6.786;2022-08-19T12:39:53;7.50;;;6.80;;
12493;SDS011;8260;51.422;6.786;2022-08-19T12:42:22;7.32;;;6.72;;
12493;SDS011;8260;51.422;6.786;2022-08-19T12:44:50;8.05;;;6.93;;
12493;SDS011;8260;51.422;6.786;2022-08-19T12:47:20;8.43;;;7.60;;
12493;SDS011;8260;51.422;6.786;2022-08-19T12:49:49;8.02;;;6.80;;
12493;SDS011;8260;51.422;6.786;2022-08-19T12:52:22;7.25;;;6.53;;
12493;SDS011;8260;51.422;6.786;2022-08-19T12:54:50;7.78;;;6.40;;
12493;SDS011;8260;51.422;6.786;2022-08-19T12:57:20;7.50;;;6.65;;
12493;SDS011;8260;51.422;6.786;2022-08-19T12:59:59;7.82;;;7.03;;
12493;SDS011;8260;51.422;6.786;2022-08-19T13:02:32;8.07;;;6.47;;
12493;SDS011;8260;51.422;6.786;2022-08-19T13:05:04;8.48;;;5.97;;
12493;SDS011;8260;51.422;6.786;2022-08-19T13:07:34;6.68;;;4.93;;
12493;SDS011;8260;51.422;6.786;2022-08-19T13:10:03;5.78;;;5.18;;
12493;SDS011;8260;51.422;6.786;2022-08-19T13:12:32;5.95;;;5.25;;
12493;SDS011;8260;51.422;6.786;2022-08-19T13:15:01;6.53;;;5.57;;
12493;SDS011;8260;51.422;6.786;2022-08-19T13:17:38;11.27;;;6.03;;
12493;SDS011;8260;51.422;6.786;2022-08-19T13:20:08;7.03;;;6.00;;
12493;SDS011;8260;51.422;6.786;2022-08-19T13:22:37;6.53;;;5.72;;
12493;SDS011;8260;51.422;6.786;2022-08-19T13:25:06;5.80;;;5.30;;
12493;SDS011;8260;51.422;6.786;2022-08-19T13:27:35;6.97;;;6.22;;
12493;SDS011;8260;51.422;6.786;2022-08-19T13:30:04;5.82;;;5.28;;
12493;SDS011;8260;51.422;6.786;2022-08-19T13:32:52;7.13;;;5.50;;
12493;SDS011;8260;51.422;6.786;2022-08-19T13:35:43;7.68;;;5.10;;
12493;SDS011;8260;51.422;6.786;2022-08-19T13:38:12;6.00;;;5.40;;
12493;SDS011;8260;51.422;6.786;2022-08-19T13:40:41;6.65;;;5.30;;
12493;SDS011;8260;51.422;6.786;2022-08-19T13:43:10;5.32;;;4.82;;
12493;SDS011;8260;51.422;6.786;2022-08-19T13:45:49;5.82;;;5.32;;
12493;SDS011;8260;51.422;6.786;2022-08-19T13:48:21;5.85;;;5.30;;
12493;SDS011;8260;51.422;6.786;2022-08-19T13:50:51;6.00;;;5.13;;
12493;SDS011;8260;51.422;6.786;2022-08-19T13:53:20;7.18;;;6.28;;
12493;SDS011;8260;51.422;6.786;2022-08-19T13:55:48;6.68;;;6.05;;
12493;SDS011;8260;51.422;6.786;2022-08-19T13:58:17;8.27;;;6.57;;
12493;SDS011;8260;51.422;6.786;2022-08-19T14:00:46;6.47;;;5.88;;
12493;SDS011;8260;51.422;6.786;2022-08-19T14:03:15;8.77;;;6.40;;
12493;SDS011;8260;51.422;6.786;2022-08-19T14:05:45;6.97;;;6.18;;
12493;SDS011;8260;51.422;6.786;2022-08-19T14:08:14;7.80;;;6.60;;
12493;SDS011;8260;51.422;6.786;2022-08-19T14:10:42;8.30;;;7.25;;
12493;SDS011;8260;51.422;6.786;2022-08-19T14:13:13;6.93;;;6.32;;
12493;SDS011;8260;51.422;6.786;2022-08-19T14:15:42;6.68;;;5.97;;
12493;SDS011;8260;51.422;6.786;2022-08-19T14:18:10;6.80;;;6.10;;
12493;SDS011;8260;51.422;6.786;2022-08-19T14:20:39;7.57;;;6.88;;
12493;SDS011;8260;51.422;6.786;2022-08-19T14:23:08;8.68;;;6.72;;
12493;SDS011;8260;51.422;6.786;2022-08-19T14:25:38;7.63;;;6.75;;
12493;SDS011;8260;51.422;6.786;2022-08-19T14:28:06;7.25;;;6.57;;
12493;SDS011;8260;51.422;6.786;2022-08-19T14:30:35;7.47;;;6.75;;
12493;SDS011;8260;51.422;6.786;2022-08-19T14:33:05;8.02;;;7.30;;
12493;SDS011;8260;51.422;6.786;2022-08-19T14:35:34;7.50;;;5.90;;
12493;SDS011;8260;51.422;6.786;2022-08-19T14:38:03;8.57;;;6.18;;
12493;SDS011;8260;51.422;6.786;2022-08-19T14:40:34;8.05;;;6.18;;
12493;SDS011;8260;51.422;6.786;2022-08-19T14:43:03;6.60;;;5.93;;
12493;SDS011;8260;51.422;6.786;2022-08-19T14:45:32;4.80;;;4.35;;
12493;SDS011;8260;51.422;6.786;2022-08-19T14:48:02;6.82;;;5.25;;
12493;SDS011;8260;51.422;6.786;2022-08-19T14:50:30;5.93;;;5.43;;
12493;SDS011;8260;51.422;6.786;2022-08-19T14:52:59;7.88;;;5.15;;
12493;SDS011;8260;51.422;6.786;2022-08-19T14:55:39;5.95;;;5.35;;
12493;SDS011;8260;51.422;6.786;2022-08-19T14:58:08;6.75;;;5.38;;
12493;SDS011;8260;51.422;6.786;2022-08-19T15:00:55;5.57;;;5.03;;
12493;SDS011;8260;51.422;6.786;2022-08-19T15:03:24;6.47;;;5.88;;
12493;SDS011;8260;51.422;6.786;2022-08-19T15:05:53;6.07;;;4.70;;
12493;SDS011;8260;51.422;6.786;2022-08-19T15:08:24;5.15;;;4.65;;
12493;SDS011;8260;51.422;6.786;2022-08-19T15:10:54;5.07;;;4.57;;
12493;SDS011;8260;51.422;6.786;2022-08-19T15:13:22;6.13;;;4.85;;
12493;SDS011;8260;51.422;6.786;2022-08-19T15:15:52;5.20;;;4.70;;